Mallabula, New South Wales

4:07 PM AEDT on February 12, 2016 (GMT +1100)
Port Stephens | | Change Station
CLOSE
Current Station
Personal Weather Station
Location: Lemon Tree Pass., NSW
Elevation: 150 ft
Nearby Weather Stations

Elev 150 ft 32.73 °S, 152.03 °E | Updated 2 minutes ago

Clear
Clear
81.8 °F
Feels Like 85 °F
N
7.0
Wind Variable Wind from NE
Gusts 12.0 mph

Today
High -- | Low -- °F
--% Chance of Precip.
Yesterday
High -- | Low -- °F
Precip. -- in
Pressure 29.95 in
Visibility 6.2 miles
Clouds
Heat Index 85 °F
Dew Point 68 °F
Humidity 62%
Rainfall 0.00 in
Snow Depth Not available.
6:25 AM 7:46 PM
Waxing Crescent, 17% visible
METAR YWLM 120500Z AUTO 13014KT 9999 // NCD 27/18 Q1014
Pressure 29.95 in
Visibility 6.2 miles
Clouds
Heat Index 85 °F
Dew Point 68 °F
Humidity 62%
Rainfall 0.00 in
Snow Depth Not available.
6:25 AM 7:46 PM
Waxing Crescent, 17% visible
METAR YWLM 120500Z AUTO 13014KT 9999 // NCD 27/18 Q1014

10-Day Weather Forecast

Almanac

Astronomy

Feb. 12, 2016 Rise Set
Actual Time
Civil Twilight
Nautical Twilight
Astronomical Twilight
Moon
Length of Visible Light
Length of Day
Tomorrow will be .
, % of the Moon is Illuminated

Today's Extremes

Country Highs Country Lows

Community

WunderPhotos

Upload Photos

1,892,265 photos uploaded!

WunderBlog® & News

Nearby

Air Quality

  Air Quality AQ Index Pollutant
Not available.

Snow Depth

Station Depth Elevation

Earthquake Activity

City Distance Mag. Time & Date
Minimum magnitude displayed is 2.5.

Coastal Water Temperatures

Place Temperature

Stations

Nearby Weather Stations

Station Location Temp. Windchill Dew Point Humidity Wind Precip. Elev Updated Type